Jean, NV (89019)

4:52 AM PST on January 24, 2017 (GMT -0800)
Front Sight Firearms Training Inst. | | Change Station

Elev 2818 ft 36.03 °N, 115.88 °W | Updated 53 seconds ago

Clear
Clear
35.8 °F
Feels Like 36 °F
N
0.0
Wind Variable Wind from East
Gusts 0.0 mph

Today
High -- | Low -- °F
--% Chance of Precip.
Yesterday
High -- | Low -- °F
Precip. -- in
Pressure 29.84 in
Visibility 10.0 miles
Clouds Clear
Windchill 36 °F
Dew Point 33 °F
Humidity 90%
Rainfall 0.07 in
Snow Depth Not available.
6:47 AM 5:01 PM
Waning Crescent, 12% visible
METAR KHND 241156Z 21008KT 10SM CLR 02/M01 A2981 RMK AO2 SLP103 6//// 7//// T00171006 10050 20017 51019 PNO $
Pressure 29.84 in
Visibility 10.0 miles
Clouds Clear
Windchill 36 °F
Dew Point 33 °F
Humidity 90%
Rainfall 0.07 in
Snow Depth Not available.
6:47 AM 5:01 PM
Waning Crescent, 12% visible
METAR KHND 241156Z 21008KT 10SM CLR 02/M01 A2981 RMK AO2 SLP103 6//// 7//// T00171006 10050 20017 51019 PNO $

Get Your Daily Forecast Email!

Thanks for signing up!

Be on the lookout for a verification email in your inbox.

You'll start receiving the daily forecast at 8 AM.

×

10-Day Weather Forecast

Almanac

Astronomy

Jan. 24, 2017 Rise Set
Actual Time
Civil Twilight
Nautical Twilight
Astronomical Twilight
Moon
Length of Visible Light
Length of Day
Tomorrow will be .
, % of the Moon is Illuminated

Today's Extremes

State Highs State Lows

Community

WunderPhotos

Upload Photos

1,962,540 photos uploaded!

WunderBlog® & News

Nearby

Air Quality

  Air Quality AQ Index Pollutant
Not available.

Snow Depth

Station Depth Elevation

Earthquake Activity

City Distance Mag. Time & Date
Minimum magnitude displayed is 2.5.

Coastal Water Temperatures

Place Temperature

Stations

Nearby Weather Stations

Station Location Temp. Windchill Dew Point Humidity Wind Precip. Elev Updated Type
                   

Watches & Warnings

There are currently no watches in effect.